createdAt,value
2019-03-23T00:00:58.228Z,5.87
2019-03-23T00:03:26.974Z,5.57
2019-03-23T00:05:55.712Z,5.87
2019-03-23T00:08:24.467Z,5.43
2019-03-23T00:10:53.172Z,5.87
2019-03-23T00:13:21.885Z,5.90
2019-03-23T00:15:50.626Z,6.20
2019-03-23T00:18:19.324Z,5.83
2019-03-23T00:20:48.104Z,5.90
2019-03-23T00:23:16.812Z,6.53
2019-03-23T00:25:45.592Z,6.23
2019-03-23T00:28:14.304Z,6.20
2019-03-23T00:30:43.354Z,5.30
2019-03-23T00:33:12.076Z,6.30
2019-03-23T00:35:40.792Z,5.93
2019-03-23T00:38:09.596Z,6.97
2019-03-23T00:40:38.328Z,6.53
2019-03-23T00:43:07.036Z,6.33
2019-03-23T00:45:35.714Z,7.10
2019-03-23T00:48:04.496Z,6.60
2019-03-23T00:50:33.225Z,6.70
2019-03-23T00:53:16.945Z,7.67
2019-03-23T00:55:45.579Z,7.80
2019-03-23T00:58:14.293Z,7.90
2019-03-23T01:00:42.951Z,8.03
2019-03-23T01:03:11.652Z,9.60
2019-03-23T01:05:40.472Z,8.83
2019-03-23T01:08:09.227Z,9.63
2019-03-23T01:10:37.954Z,10.03
2019-03-23T01:13:06.603Z,10.23
2019-03-23T01:15:35.290Z,11.17
2019-03-23T01:18:04.026Z,10.73
2019-03-23T01:20:32.642Z,12.47
2019-03-23T01:23:01.396Z,13.77
2019-03-23T01:25:30.100Z,14.00
2019-03-23T01:27:58.760Z,12.83
2019-03-23T01:30:27.560Z,15.03
2019-03-23T01:32:56.295Z,15.67
2019-03-23T01:35:25.022Z,16.37
2019-03-23T01:37:53.800Z,16.07
2019-03-23T01:40:22.508Z,20.60
2019-03-23T01:42:51.140Z,21.97
2019-03-23T01:45:19.839Z,21.93
2019-03-23T01:47:48.488Z,23.50
2019-03-23T01:50:17.164Z,26.50
2019-03-23T01:52:45.843Z,24.27
2019-03-23T01:55:14.556Z,29.57
2019-03-23T01:57:43.183Z,32.33
2019-03-23T02:00:12.120Z,39.50
2019-03-23T02:02:40.845Z,37.90
2019-03-23T02:05:09.585Z,42.90
2019-03-23T02:07:38.432Z,38.07
2019-03-23T02:10:07.283Z,42.60
2019-03-23T02:12:35.937Z,43.53
2019-03-23T02:15:05.203Z,44.77
2019-03-23T02:17:33.819Z,40.83
2019-03-23T02:20:02.531Z,43.17
2019-03-23T02:22:31.313Z,56.97
2019-03-23T02:24:59.949Z,54.70
2019-03-23T02:27:46.355Z,56.50
2019-03-23T02:30:15.074Z,57.10
2019-03-23T02:32:43.714Z,60.63
2019-03-23T02:35:12.549Z,61.03
2019-03-23T02:37:41.193Z,54.27
2019-03-23T02:40:09.979Z,60.43
2019-03-23T02:42:38.809Z,57.73
2019-03-23T02:45:07.691Z,62.40
2019-03-23T02:47:36.412Z,60.73
2019-03-23T02:50:05.349Z,69.47
2019-03-23T02:52:34.033Z,62.53
2019-03-23T02:55:03.102Z,65.33
2019-03-23T02:57:31.854Z,68.57
2019-03-23T03:00:00.499Z,66.30
2019-03-23T03:02:29.157Z,66.00
2019-03-23T03:04:57.827Z,70.03
2019-03-23T03:07:26.553Z,67.20
2019-03-23T03:09:55.252Z,67.10
2019-03-23T03:12:24.051Z,71.13
2019-03-23T03:14:52.793Z,66.73
2019-03-23T03:17:21.517Z,66.30
2019-03-23T03:19:50.190Z,66.30
2019-03-23T03:22:18.990Z,65.10
2019-03-23T03:24:47.705Z,64.00
2019-03-23T03:27:16.375Z,66.53
2019-03-23T03:29:45.022Z,66.00
2019-03-23T03:32:13.740Z,66.03
2019-03-23T03:34:42.444Z,69.43
2019-03-23T03:37:11.090Z,68.50
2019-03-23T03:39:39.796Z,66.60
2019-03-23T03:42:08.577Z,69.83
2019-03-23T03:44:37.274Z,69.13
2019-03-23T03:47:06.015Z,68.57
2019-03-23T03:49:34.701Z,70.23
2019-03-23T03:52:03.439Z,70.00
2019-03-23T03:54:32.096Z,75.47
2019-03-23T03:57:00.885Z,71.00
2019-03-23T03:59:29.551Z,70.23
2019-03-23T04:01:58.377Z,74.87
2019-03-23T04:04:27.165Z,72.17
2019-03-23T04:06:56.061Z,70.03
2019-03-23T04:09:24.704Z,71.07
2019-03-23T04:11:53.384Z,68.97
2019-03-23T04:14:22.094Z,72.27
2019-03-23T04:16:50.772Z,70.43
2019-03-23T04:19:19.445Z,68.43
2019-03-23T04:21:48.114Z,70.07
2019-03-23T04:24:16.782Z,69.90
2019-03-23T04:26:45.455Z,71.07
2019-03-23T04:29:14.173Z,74.20
2019-03-23T04:31:42.850Z,73.73
2019-03-23T04:34:11.600Z,70.57
2019-03-23T04:36:40.797Z,70.83
2019-03-23T04:39:09.449Z,70.87
2019-03-23T04:41:38.254Z,71.70
2019-03-23T04:44:06.914Z,73.10
2019-03-23T04:46:35.566Z,77.37
2019-03-23T04:49:04.346Z,71.60
2019-03-23T04:51:33.088Z,70.80
2019-03-23T04:54:01.751Z,72.23
2019-03-23T04:56:30.521Z,70.33
2019-03-23T04:58:59.284Z,71.00
2019-03-23T05:01:28.032Z,68.83
2019-03-23T05:03:56.762Z,69.93
2019-03-23T05:06:25.495Z,67.77
2019-03-23T05:08:54.123Z,72.10
2019-03-23T05:11:23.217Z,71.63
2019-03-23T05:13:51.865Z,70.33
2019-03-23T05:16:20.540Z,68.83
2019-03-23T05:18:49.313Z,68.80
2019-03-23T05:21:18.025Z,71.90
2019-03-23T05:23:46.736Z,71.27
2019-03-23T05:26:15.433Z,69.37
2019-03-23T05:28:44.168Z,72.87
2019-03-23T05:31:12.875Z,73.57
2019-03-23T05:33:41.604Z,71.83
2019-03-23T05:36:10.264Z,69.57
2019-03-23T05:38:44.237Z,72.03
2019-03-23T05:41:09.325Z,71.83
2019-03-23T05:43:37.960Z,74.90
2019-03-23T05:46:06.685Z,70.30
2019-03-23T05:48:35.621Z,71.43
2019-03-23T05:51:04.262Z,74.03
2019-03-23T05:53:32.973Z,73.67
2019-03-23T05:56:01.742Z,77.67
2019-03-23T05:58:30.452Z,75.37
2019-03-23T06:00:59.182Z,74.20
2019-03-23T06:03:27.943Z,79.60
2019-03-23T06:05:56.653Z,69.57
2019-03-23T06:08:25.297Z,77.57
2019-03-23T06:10:53.999Z,72.83
2019-03-23T06:13:22.765Z,74.43
2019-03-23T06:15:51.477Z,72.07
2019-03-23T06:18:20.149Z,69.73
2019-03-23T06:20:48.801Z,71.97
2019-03-23T06:23:17.612Z,70.13
2019-03-23T06:25:46.340Z,68.53
2019-03-23T06:28:15.124Z,70.47
2019-03-23T06:30:44.280Z,67.80
2019-03-23T06:33:13.096Z,71.50
2019-03-23T06:35:41.736Z,72.27
2019-03-23T06:38:10.448Z,68.53
2019-03-23T06:40:39.142Z,65.17
2019-03-23T06:43:07.932Z,69.33
2019-03-23T06:45:36.927Z,66.87
2019-03-23T06:48:05.672Z,65.00
2019-03-23T06:50:34.402Z,65.23
2019-03-23T06:53:03.158Z,64.43
2019-03-23T06:55:31.936Z,67.47
2019-03-23T06:58:00.617Z,67.77
2019-03-23T07:00:29.279Z,70.60
2019-03-23T07:06:08.389Z,65.33
2019-03-23T07:08:37.053Z,67.50
2019-03-23T07:11:05.778Z,65.33
2019-03-23T07:13:34.486Z,67.47
2019-03-23T07:16:03.222Z,67.97
2019-03-23T07:18:31.906Z,63.03
2019-03-23T07:21:00.689Z,65.17
2019-03-23T07:23:29.445Z,65.83
2019-03-23T07:25:58.190Z,63.37
2019-03-23T07:28:26.905Z,62.27
2019-03-23T07:30:55.652Z,61.40
2019-03-23T07:33:24.385Z,61.47
2019-03-23T07:35:53.237Z,61.40
2019-03-23T07:38:21.884Z,58.07
2019-03-23T07:40:50.529Z,59.77
2019-03-23T07:43:37.661Z,60.07
2019-03-23T07:46:06.420Z,59.57
2019-03-23T07:48:35.170Z,60.00
2019-03-23T07:51:03.975Z,57.73
2019-03-23T07:53:32.660Z,57.77
2019-03-23T07:56:01.310Z,58.37
2019-03-23T07:58:30.042Z,58.73
2019-03-23T08:00:58.863Z,55.70
2019-03-23T08:03:27.613Z,58.50
2019-03-23T08:05:56.376Z,57.10
2019-03-23T08:08:25.048Z,56.70
2019-03-23T08:10:53.750Z,54.67
2019-03-23T08:13:22.590Z,53.40
2019-03-23T08:15:51.383Z,59.37
2019-03-23T08:18:20.046Z,57.57
2019-03-23T08:20:48.848Z,56.17
2019-03-23T08:23:17.602Z,56.03
2019-03-23T08:25:46.435Z,56.73
2019-03-23T08:28:15.196Z,56.87
2019-03-23T08:30:43.860Z,57.70
2019-03-23T08:33:12.742Z,55.20
2019-03-23T08:35:42.600Z,53.83
2019-03-23T08:38:11.418Z,55.43
2019-03-23T08:40:40.155Z,54.70
2019-03-23T08:43:09.057Z,55.03
2019-03-23T08:45:37.850Z,54.77
2019-03-23T08:48:06.598Z,56.47
2019-03-23T08:50:35.374Z,54.20
2019-03-23T08:53:04.257Z,57.30
2019-03-23T08:55:33.015Z,52.67
2019-03-23T08:58:01.841Z,55.87
2019-03-23T09:00:30.564Z,54.97
2019-03-23T09:02:59.326Z,56.73
2019-03-23T09:05:28.110Z,55.20
2019-03-23T09:07:56.899Z,56.73
2019-03-23T09:10:25.711Z,56.57
2019-03-23T09:12:54.491Z,53.17
2019-03-23T09:15:23.336Z,56.60
2019-03-23T09:17:52.098Z,55.60
2019-03-23T09:20:20.879Z,55.93
2019-03-23T09:22:49.662Z,55.17
2019-03-23T09:25:18.391Z,54.60
2019-03-23T09:27:47.241Z,50.73
2019-03-23T09:30:16.004Z,51.83
2019-03-23T09:32:44.832Z,53.43
2019-03-23T09:35:13.588Z,51.33
2019-03-23T09:37:42.420Z,53.77
2019-03-23T09:40:11.616Z,55.70
2019-03-23T09:42:40.524Z,52.17
2019-03-23T09:45:09.483Z,52.30
2019-03-23T09:47:38.263Z,53.23
2019-03-23T09:50:07.348Z,53.83
2019-03-23T09:52:36.050Z,55.87
2019-03-23T09:55:05.191Z,52.47
2019-03-23T09:57:34.005Z,51.10
2019-03-23T10:00:02.847Z,52.13
2019-03-23T10:02:31.722Z,53.70
2019-03-23T10:05:00.496Z,51.67
2019-03-23T10:07:29.226Z,50.97
2019-03-23T10:09:57.969Z,52.93
2019-03-23T10:12:26.652Z,51.40
2019-03-23T10:14:55.385Z,49.63
2019-03-23T10:17:26.295Z,47.43
2019-03-23T10:19:55.141Z,49.53
2019-03-23T10:22:23.864Z,48.67
2019-03-23T10:24:52.604Z,50.77
2019-03-23T10:27:21.392Z,49.67
2019-03-23T10:29:51.950Z,50.60
2019-03-23T10:32:20.595Z,47.77
2019-03-23T10:34:49.395Z,48.93
2019-03-23T10:37:18.104Z,49.80
2019-03-23T10:39:46.830Z,46.70
2019-03-23T10:42:16.341Z,47.37
2019-03-23T10:44:45.083Z,47.67
2019-03-23T10:47:13.776Z,46.97
2019-03-23T10:49:42.475Z,47.73
2019-03-23T10:52:11.308Z,47.60
2019-03-23T10:54:40.045Z,46.13
2019-03-23T10:57:08.831Z,47.93
2019-03-23T10:59:37.470Z,45.37
2019-03-23T11:02:06.170Z,42.80
2019-03-23T11:04:34.917Z,43.10
2019-03-23T11:07:03.825Z,42.97
2019-03-23T11:09:32.468Z,44.00
2019-03-23T11:12:01.256Z,44.53
2019-03-23T11:14:30.107Z,44.43
2019-03-23T11:16:58.820Z,44.70
2019-03-23T11:19:27.668Z,45.17
2019-03-23T11:21:56.324Z,44.17
2019-03-23T11:24:25.078Z,41.80
2019-03-23T11:26:55.199Z,43.80
2019-03-23T11:29:31.575Z,44.30
2019-03-23T11:32:00.233Z,43.53
2019-03-23T11:34:28.860Z,42.20
2019-03-23T11:36:57.639Z,42.90
2019-03-23T11:39:26.422Z,45.23
2019-03-23T11:41:55.115Z,43.83
2019-03-23T11:44:23.719Z,45.20
2019-03-23T11:46:52.468Z,41.67
2019-03-23T11:49:21.282Z,42.47
2019-03-23T11:51:50.168Z,42.07
2019-03-23T11:54:20.139Z,41.80
2019-03-23T11:56:49.126Z,41.03
2019-03-23T11:59:18.032Z,42.30
2019-03-23T12:01:51.634Z,41.87
2019-03-23T12:04:17.597Z,41.33
2019-03-23T12:06:46.592Z,41.43
2019-03-23T12:09:17.502Z,40.13
2019-03-23T12:11:53.145Z,40.07
2019-03-23T12:14:21.837Z,40.77
2019-03-23T12:16:50.504Z,41.17
2019-03-23T12:19:19.131Z,41.00
2019-03-23T12:21:47.952Z,40.33
2019-03-23T12:24:16.758Z,40.47
2019-03-23T12:26:45.444Z,41.97
2019-03-23T12:29:14.204Z,37.83
2019-03-23T12:31:42.923Z,37.17
2019-03-23T12:34:15.443Z,36.70
2019-03-23T12:36:44.125Z,35.77
2019-03-23T12:39:15.443Z,37.63
2019-03-23T12:41:44.055Z,38.73
2019-03-23T12:44:12.783Z,36.80
2019-03-23T12:46:48.163Z,36.33
2019-03-23T12:49:13.029Z,38.03
2019-03-23T12:51:43.071Z,39.00
2019-03-23T12:54:11.942Z,35.53
2019-03-23T12:56:40.976Z,37.00
2019-03-23T12:59:09.945Z,36.23
2019-03-23T13:01:38.835Z,38.50
2019-03-23T13:04:07.697Z,37.73
2019-03-23T13:06:36.797Z,38.07
2019-03-23T13:09:06.724Z,38.30
2019-03-23T13:11:36.127Z,38.30
2019-03-23T13:14:05.293Z,38.43
2019-03-23T13:16:34.157Z,39.73
2019-03-23T13:19:03.836Z,38.37
2019-03-23T13:21:32.811Z,37.53
2019-03-23T13:24:02.589Z,36.13
2019-03-23T13:26:31.596Z,37.93
2019-03-23T13:29:00.636Z,37.47
2019-03-23T13:31:29.632Z,35.87
2019-03-23T13:33:58.707Z,35.03
2019-03-23T13:36:27.683Z,36.73
2019-03-23T13:38:56.678Z,35.57
2019-03-23T13:41:25.663Z,35.20
2019-03-23T13:43:54.683Z,37.57
2019-03-23T13:46:23.747Z,34.33
2019-03-23T13:48:52.791Z,35.90
2019-03-23T13:51:21.778Z,32.83
2019-03-23T13:53:50.732Z,34.63
2019-03-23T13:56:19.665Z,34.07
2019-03-23T13:58:48.742Z,34.57
2019-03-23T14:01:17.702Z,34.20
2019-03-23T14:03:46.606Z,35.17
2019-03-23T14:06:15.699Z,35.43
2019-03-23T14:08:44.782Z,37.13
2019-03-23T14:11:13.785Z,36.53
2019-03-23T14:13:42.681Z,37.00
2019-03-23T14:16:11.702Z,34.63
2019-03-23T14:18:40.551Z,36.20
2019-03-23T14:21:09.597Z,37.70
2019-03-23T14:23:38.756Z,35.83
2019-03-23T14:26:07.719Z,36.57
2019-03-23T14:28:36.769Z,36.70
2019-03-23T14:31:05.662Z,35.70
2019-03-23T14:33:34.565Z,37.70
2019-03-23T14:36:03.539Z,38.00
2019-03-23T14:38:32.512Z,37.20
2019-03-23T14:41:01.570Z,38.73
2019-03-23T14:43:30.583Z,38.57
2019-03-23T14:45:59.470Z,41.03
2019-03-23T14:48:29.127Z,41.87
2019-03-23T14:50:58.090Z,42.03
2019-03-23T14:53:27.084Z,41.00
2019-03-23T14:55:56.101Z,43.17
2019-03-23T14:58:25.092Z,41.37
2019-03-23T15:00:54.053Z,38.60
2019-03-23T15:03:23.130Z,41.07
2019-03-23T15:05:52.049Z,40.17
2019-03-23T15:08:21.007Z,39.10
2019-03-23T15:10:49.881Z,40.30
2019-03-23T15:13:18.861Z,40.57
2019-03-23T15:15:47.817Z,39.20
2019-03-23T15:18:16.758Z,42.60
2019-03-23T15:20:45.701Z,40.83
2019-03-23T15:23:14.663Z,41.80
2019-03-23T15:25:43.643Z,43.13
2019-03-23T15:28:12.610Z,42.57
2019-03-23T15:30:42.058Z,41.67
2019-03-23T15:33:10.949Z,41.63
2019-03-23T15:35:39.808Z,41.67
2019-03-23T15:38:08.546Z,39.47
2019-03-23T15:40:42.432Z,38.87
2019-03-23T15:43:11.227Z,37.23
2019-03-23T15:45:39.952Z,39.40
2019-03-23T15:48:08.593Z,37.40
2019-03-23T15:50:37.986Z,36.50
2019-03-23T15:53:06.733Z,36.53
2019-03-23T15:55:35.533Z,35.83
2019-03-23T15:58:04.297Z,36.67
2019-03-23T16:00:33.115Z,38.33
2019-03-23T16:03:01.839Z,42.73
2019-03-23T16:05:30.595Z,39.47
2019-03-23T16:07:59.305Z,41.27
2019-03-23T16:10:27.957Z,40.63
2019-03-23T16:12:56.644Z,41.80
2019-03-23T16:15:25.352Z,41.27
2019-03-23T16:17:54.116Z,41.63
2019-03-23T16:20:22.919Z,41.43
2019-03-23T16:22:51.689Z,41.53
2019-03-23T16:25:20.415Z,40.10
2019-03-23T16:27:49.368Z,42.47
2019-03-23T16:30:20.308Z,43.67
2019-03-23T16:32:49.120Z,41.77
2019-03-23T16:35:17.831Z,41.13
2019-03-23T16:37:46.506Z,43.77
2019-03-23T16:40:15.246Z,43.37
2019-03-23T16:42:45.474Z,43.03
2019-03-23T16:45:14.505Z,44.00
2019-03-23T16:47:43.164Z,43.43
2019-03-23T16:50:11.928Z,41.83
2019-03-23T16:52:40.651Z,43.43
2019-03-23T16:55:09.519Z,43.53
2019-03-23T16:57:38.305Z,43.27
2019-03-23T17:00:07.426Z,44.37
2019-03-23T17:02:36.248Z,42.67
2019-03-23T17:05:05.365Z,43.77
2019-03-23T17:07:34.083Z,45.53
2019-03-23T17:10:02.742Z,44.27
2019-03-23T17:12:31.458Z,43.87
2019-03-23T17:15:00.175Z,44.27
2019-03-23T17:17:29.094Z,46.10
2019-03-23T17:19:57.768Z,44.50
2019-03-23T17:22:26.488Z,42.63
2019-03-23T17:24:55.125Z,46.00
2019-03-23T17:27:23.792Z,45.80
2019-03-23T17:29:52.451Z,62.97
2019-03-23T17:32:21.158Z,45.40
2019-03-23T17:34:49.938Z,44.40
2019-03-23T17:37:18.638Z,45.63
2019-03-23T17:39:47.319Z,45.43
2019-03-23T17:42:16.345Z,44.70
2019-03-23T17:44:46.218Z,43.93
2019-03-23T17:47:15.359Z,47.00
2019-03-23T17:49:44.652Z,47.63
2019-03-23T17:52:13.393Z,46.70
2019-03-23T17:54:42.133Z,46.23
2019-03-23T17:57:10.893Z,43.53
2019-03-23T17:59:39.779Z,38.33
2019-03-23T18:02:08.642Z,36.40
2019-03-23T18:04:37.355Z,33.07
2019-03-23T18:07:07.385Z,30.77
2019-03-23T18:09:36.271Z,29.37
2019-03-23T18:12:05.307Z,20.30
2019-03-23T18:14:34.225Z,18.80
2019-03-23T18:17:03.500Z,18.73
2019-03-23T18:19:32.551Z,19.33
2019-03-23T18:22:01.593Z,17.70
2019-03-23T18:24:30.388Z,21.33
2019-03-23T18:26:59.257Z,19.03
2019-03-23T18:29:34.784Z,18.90
2019-03-23T18:32:03.580Z,19.87
2019-03-23T18:34:32.315Z,19.03
2019-03-23T18:37:01.024Z,19.73
2019-03-23T18:39:30.246Z,20.70
2019-03-23T18:41:58.969Z,18.03
2019-03-23T18:44:28.205Z,20.63
2019-03-23T18:46:57.164Z,22.20
2019-03-23T18:49:26.352Z,23.00
2019-03-23T18:51:54.988Z,22.97
2019-03-23T18:54:23.897Z,23.40
2019-03-23T18:56:52.748Z,29.37
2019-03-23T18:59:21.613Z,25.00
2019-03-23T19:01:50.568Z,27.03
2019-03-23T19:04:19.442Z,24.83
2019-03-23T19:06:48.174Z,27.17
2019-03-23T19:09:17.317Z,25.47
2019-03-23T19:11:46.689Z,30.27
2019-03-23T19:14:15.509Z,25.57
2019-03-23T19:16:44.236Z,36.73
2019-03-23T19:19:13.104Z,26.17
2019-03-23T19:21:43.081Z,28.80
2019-03-23T19:24:13.822Z,25.53
2019-03-23T19:26:42.776Z,48.90
2019-03-23T19:29:11.695Z,30.97
2019-03-23T19:31:40.623Z,29.70
2019-03-23T19:34:09.428Z,30.53
2019-03-23T19:36:38.331Z,32.10
2019-03-23T19:39:08.658Z,29.13
2019-03-23T19:41:37.603Z,43.57
2019-03-23T19:44:06.605Z,28.13
2019-03-23T19:46:35.346Z,27.90
2019-03-23T19:49:04.278Z,29.03
2019-03-23T19:51:33.258Z,35.90
2019-03-23T19:54:02.004Z,33.77
2019-03-23T19:56:30.717Z,26.97
2019-03-23T19:58:59.680Z,27.93
2019-03-23T20:01:28.531Z,27.67
2019-03-23T20:03:57.553Z,25.97
2019-03-23T20:06:26.766Z,25.97
2019-03-23T20:08:55.510Z,23.63
2019-03-23T20:11:24.802Z,21.77
2019-03-23T20:13:58.781Z,22.27
2019-03-23T20:16:24.289Z,20.90
2019-03-23T20:18:53.107Z,20.87
2019-03-23T20:21:21.964Z,18.87
2019-03-23T20:23:51.352Z,18.00
2019-03-23T20:26:21.067Z,13.73
2019-03-23T20:28:52.661Z,13.43
2019-03-23T20:31:21.753Z,13.60
2019-03-23T20:33:50.544Z,11.47
2019-03-23T20:36:19.232Z,11.77
2019-03-23T20:38:48.009Z,10.50
2019-03-23T20:41:16.720Z,10.57
2019-03-23T20:43:45.453Z,8.70
2019-03-23T20:46:14.161Z,9.87
2019-03-23T20:48:42.865Z,8.10
2019-03-23T20:51:13.638Z,8.13
2019-03-23T20:53:42.408Z,8.50
2019-03-23T20:56:11.204Z,7.10
2019-03-23T20:58:39.865Z,7.73
2019-03-23T21:01:10.472Z,7.17
2019-03-23T21:03:39.498Z,7.90
2019-03-23T21:06:08.252Z,6.70
2019-03-23T21:08:37.435Z,6.83
2019-03-23T21:11:06.464Z,6.87
2019-03-23T21:13:35.885Z,6.43
2019-03-23T21:16:05.002Z,6.33
2019-03-23T21:18:34.633Z,6.17
2019-03-23T21:21:03.875Z,5.73
2019-03-23T21:23:32.683Z,6.57
2019-03-23T21:26:01.366Z,6.63
2019-03-23T21:28:30.077Z,6.00
2019-03-23T21:31:00.258Z,7.53
2019-03-23T21:33:32.098Z,6.07
2019-03-23T21:36:04.408Z,6.30
2019-03-23T21:38:34.833Z,5.87
2019-03-23T21:41:05.549Z,6.97
2019-03-23T21:43:34.696Z,6.40
2019-03-23T21:46:07.804Z,6.30
2019-03-23T21:48:36.599Z,6.20
2019-03-23T21:51:07.351Z,5.73
2019-03-23T21:53:38.682Z,5.43
2019-03-23T21:56:06.732Z,6.40
2019-03-23T21:58:35.563Z,5.27
2019-03-23T22:01:05.007Z,6.62
2019-03-23T22:03:33.732Z,6.00
2019-03-23T22:06:02.905Z,6.87
2019-03-23T22:08:31.695Z,5.87
2019-03-23T22:11:00.400Z,6.00
2019-03-23T22:13:29.202Z,5.80
2019-03-23T22:15:58.168Z,6.53
2019-03-23T22:18:26.852Z,6.07
2019-03-23T22:20:55.719Z,7.03
2019-03-23T22:23:24.552Z,7.23
2019-03-23T22:25:53.227Z,6.20
2019-03-23T22:28:22.138Z,6.60
2019-03-23T22:30:50.855Z,7.87
2019-03-23T22:33:19.492Z,7.70
2019-03-23T22:35:48.168Z,6.90
2019-03-23T22:38:16.812Z,8.53
2019-03-23T22:40:45.677Z,8.47
2019-03-23T22:43:14.494Z,9.20
2019-03-23T22:45:43.221Z,8.17
2019-03-23T22:48:11.963Z,8.60
2019-03-23T22:50:40.803Z,8.77
2019-03-23T22:53:09.542Z,8.97
2019-03-23T22:55:38.196Z,8.73
2019-03-23T22:58:06.951Z,8.70
2019-03-23T23:00:43.886Z,10.20
2019-03-23T23:03:12.988Z,9.27
2019-03-23T23:05:41.716Z,10.07
2019-03-23T23:08:10.432Z,9.60
2019-03-23T23:10:39.211Z,9.30
2019-03-23T23:13:07.983Z,9.50
2019-03-23T23:15:36.793Z,9.43
2019-03-23T23:18:05.562Z,9.60
2019-03-23T23:20:37.073Z,9.07
2019-03-23T23:23:05.798Z,9.43
2019-03-23T23:25:34.636Z,9.70
2019-03-23T23:28:03.356Z,8.80
2019-03-23T23:30:32.067Z,9.77
2019-03-23T23:33:00.768Z,10.07
2019-03-23T23:35:29.523Z,9.70
2019-03-23T23:37:58.264Z,10.57
2019-03-23T23:40:26.980Z,10.47
2019-03-23T23:42:55.668Z,8.93
2019-03-23T23:45:24.329Z,10.13
2019-03-23T23:47:53.072Z,9.70
2019-03-23T23:50:21.811Z,10.13
2019-03-23T23:52:50.772Z,13.08
2019-03-23T23:55:19.602Z,11.90
2019-03-23T23:57:48.324Z,10.73
